Time;durP1;ratioP1;P1;durP2;ratioP2;P2;SDS_P1;SDS_P2;PMS_P1;PMS_P2;Temp;Humidity;BMP_temperature;BMP_pressure;BME280_temperature;BME280_humidity;BME280_pressure;Samples;Min_cycle;Max_cycle;Signal;HPM_P1;HPM_P2
2022/06/06 00:00:30;;;;;;;12.05;8.43;;;;;;;;;;6269989;28;20021;-75
2022/06/06 00:03:30;;;;;;;12.43;7.80;;;;;;;;;;6274285;28;20024;-76
2022/06/06 00:06:30;;;;;;;11.48;8.18;;;;;;;;;;6273656;28;20024;-76
2022/06/06 00:09:31;;;;;;;12.98;9.50;;;;;;;;;;6271912;28;20028;-76
2022/06/06 00:12:31;;;;;;;9.98;7.88;;;;;;;;;;6272261;28;20012;-76
2022/06/06 00:15:31;;;;;;;11.53;8.10;;;;;;;;;;6273988;28;20029;-77
2022/06/06 00:18:32;;;;;;;14.13;8.37;;;;;;;;;;6271783;28;20283;-76
2022/06/06 00:21:34;;;;;;;13.20;8.90;;;;;;;;;;6272099;28;20303;-76
2022/06/06 00:24:34;;;;;;;12.50;8.20;;;;;;;;;;6272627;28;20028;-76
2022/06/06 00:27:35;;;;;;;12.10;8.00;;;;;;;;;;6265721;28;20025;-76
2022/06/06 00:30:35;;;;;;;10.48;7.80;;;;;;;;;;6269679;28;20025;-77
2022/06/06 00:36:54;;;;;;;12.25;7.97;;;;;;;;;;6273191;28;20472;-76
2022/06/06 00:39:54;;;;;;;14.40;8.13;;;;;;;;;;6272754;28;20033;-76
2022/06/06 00:42:55;;;;;;;13.00;8.90;;;;;;;;;;6272057;28;20755;-76
2022/06/06 00:45:56;;;;;;;14.32;9.00;;;;;;;;;;6270793;28;20017;-76
2022/06/06 00:48:57;;;;;;;12.95;9.00;;;;;;;;;;6267548;28;20013;-75
2022/06/06 00:51:57;;;;;;;12.07;8.35;;;;;;;;;;6270734;28;20032;-76
2022/06/06 00:55:02;;;;;;;13.82;8.77;;;;;;;;;;6261927;28;20027;-76
2022/06/06 00:58:31;;;;;;;13.18;7.85;;;;;;;;;;6271190;28;20028;-76
2022/06/06 01:01:34;;;;;;;13.98;7.90;;;;;;;;;;6266515;28;20056;-76
2022/06/06 01:04:34;;;;;;;15.00;9.13;;;;;;;;;;6269199;28;20047;-76
2022/06/06 01:07:34;;;;;;;12.25;8.10;;;;;;;;;;6269932;28;20043;-76
2022/06/06 01:10:35;;;;;;;13.80;8.60;;;;;;;;;;6272459;28;20025;-76
2022/06/06 01:13:36;;;;;;;13.88;8.25;;;;;;;;;;6271014;28;20255;-76
2022/06/06 01:16:39;;;;;;;13.85;9.18;;;;;;;;;;6271174;28;20159;-76
2022/06/06 01:20:00;;;;;;;12.75;8.40;;;;;;;;;;6268741;28;20587;-76
2022/06/06 01:23:19;;;;;;;13.45;8.48;;;;;;;;;;6268914;28;20037;-76
2022/06/06 01:26:25;;;;;;;13.82;9.10;;;;;;;;;;6269505;28;20041;-76
2022/06/06 01:29:28;;;;;;;14.38;9.00;;;;;;;;;;6271691;28;20041;-76
2022/06/06 01:32:33;;;;;;;17.52;10.45;;;;;;;;;;6264764;28;20439;-76
2022/06/06 01:35:34;;;;;;;23.77;10.32;;;;;;;;;;6264399;28;20032;-76
2022/06/06 01:38:35;;;;;;;12.02;7.85;;;;;;;;;;6268536;28;20738;-76
2022/06/06 01:41:38;;;;;;;12.35;8.65;;;;;;;;;;6271159;28;20028;-76
2022/06/06 01:44:40;;;;;;;15.75;10.43;;;;;;;;;;6269796;28;20017;-76
2022/06/06 01:47:52;;;;;;;12.57;8.75;;;;;;;;;;6285139;28;20029;-76
2022/06/06 01:50:53;;;;;;;15.00;9.40;;;;;;;;;;6264501;28;20032;-76
2022/06/06 01:53:53;;;;;;;13.68;9.50;;;;;;;;;;6272175;28;20044;-76
2022/06/06 01:56:54;;;;;;;14.80;10.80;;;;;;;;;;6268338;28;20089;-76
2022/06/06 01:59:57;;;;;;;15.00;9.67;;;;;;;;;;6268687;28;20021;-76
2022/06/06 02:02:57;;;;;;;13.65;9.07;;;;;;;;;;6268771;28;20016;-76
2022/06/06 02:05:58;;;;;;;13.77;8.75;;;;;;;;;;6269722;28;20595;-76
2022/06/06 02:08:58;;;;;;;13.77;8.82;;;;;;;;;;6270821;28;20027;-76
2022/06/06 02:11:59;;;;;;;13.35;8.35;;;;;;;;;;6270662;28;20017;-76
2022/06/06 02:14:59;;;;;;;18.88;9.95;;;;;;;;;;6269456;28;20051;-76
2022/06/06 02:18:00;;;;;;;12.10;8.87;;;;;;;;;;6272272;28;20036;-76
2022/06/06 02:21:01;;;;;;;16.08;9.00;;;;;;;;;;6273418;28;20291;-76
2022/06/06 02:24:01;;;;;;;14.85;9.98;;;;;;;;;;6278043;28;20477;-76
2022/06/06 02:27:02;;;;;;;13.30;8.98;;;;;;;;;;6280084;28;20021;-76
2022/06/06 02:30:06;;;;;;;14.50;8.48;;;;;;;;;;6279570;28;20063;-76
2022/06/06 02:33:06;;;;;;;14.43;9.10;;;;;;;;;;6279161;28;20380;-76
2022/06/06 02:36:07;;;;;;;18.80;9.90;;;;;;;;;;6279165;28;20040;-76
2022/06/06 02:39:07;;;;;;;12.93;8.75;;;;;;;;;;6270767;28;20023;-76
2022/06/06 02:42:07;;;;;;;14.63;9.32;;;;;;;;;;6271576;28;20389;-76
2022/06/06 02:45:09;;;;;;;12.27;8.77;;;;;;;;;;6276804;28;20012;-76
2022/06/06 02:48:10;;;;;;;16.52;9.65;;;;;;;;;;6274867;28;20262;-76
2022/06/06 02:51:10;;;;;;;16.63;10.20;;;;;;;;;;6275179;28;20380;-76
2022/06/06 02:54:10;;;;;;;16.20;9.55;;;;;;;;;;6276730;28;20362;-76
2022/06/06 02:57:11;;;;;;;18.98;10.18;;;;;;;;;;6275256;28;20040;-76
2022/06/06 03:00:14;;;;;;;21.40;10.88;;;;;;;;;;6279853;28;20025;-77
2022/06/06 03:03:15;;;;;;;15.75;10.90;;;;;;;;;;6279632;28;20103;-76
2022/06/06 03:06:34;;;;;;;15.40;10.93;;;;;;;;;;6278292;28;20667;-76
2022/06/06 03:09:54;;;;;;;14.30;8.98;;;;;;;;;;6277072;28;20021;-76
2022/06/06 03:13:06;;;;;;;16.75;10.43;;;;;;;;;;6277205;28;20098;-77
2022/06/06 03:23:22;;;;;;;18.33;11.27;;;;;;;;;;6273973;28;20030;-76
2022/06/06 03:26:22;;;;;;;14.82;9.40;;;;;;;;;;6278930;28;20013;-76
2022/06/06 03:29:32;;;;;;;16.20;10.93;;;;;;;;;;6274446;28;20538;-76
2022/06/06 03:32:39;;;;;;;18.08;9.25;;;;;;;;;;6273589;28;20025;-76
2022/06/06 03:35:49;;;;;;;12.98;9.52;;;;;;;;;;6272303;28;20020;-76
2022/06/06 03:38:59;;;;;;;20.45;12.13;;;;;;;;;;6268254;28;20018;-75
2022/06/06 03:42:25;;;;;;;14.95;10.20;;;;;;;;;;6272192;28;20032;-75
2022/06/06 03:45:30;;;;;;;15.70;9.88;;;;;;;;;;6273671;28;20021;-75
2022/06/06 03:48:49;;;;;;;15.52;10.80;;;;;;;;;;6275046;28;20053;-75
2022/06/06 03:51:59;;;;;;;14.82;9.95;;;;;;;;;;6270512;28;20434;-75
2022/06/06 03:55:10;;;;;;;17.23;10.35;;;;;;;;;;6267635;28;20035;-75
2022/06/06 03:58:12;;;;;;;12.95;9.32;;;;;;;;;;6267475;28;20013;-75
2022/06/06 04:01:14;;;;;;;13.73;8.18;;;;;;;;;;6272673;28;20024;-75
2022/06/06 04:04:15;;;;;;;14.45;8.80;;;;;;;;;;6271805;28;20485;-76
2022/06/06 04:07:15;;;;;;;15.27;8.85;;;;;;;;;;6276695;28;20013;-75
2022/06/06 04:10:16;;;;;;;13.37;8.80;;;;;;;;;;6279233;28;20021;-75
2022/06/06 04:13:36;;;;;;;15.38;8.77;;;;;;;;;;6275997;28;20017;-75
2022/06/06 04:16:47;;;;;;;12.35;8.48;;;;;;;;;;6268190;28;20496;-76
2022/06/06 04:19:48;;;;;;;11.15;7.90;;;;;;;;;;6272423;28;20033;-76
2022/06/06 04:22:51;;;;;;;15.17;9.40;;;;;;;;;;6273046;28;20021;-76
2022/06/06 04:26:00;;;;;;;15.00;8.18;;;;;;;;;;6274326;28;20088;-76
2022/06/06 04:29:09;;;;;;;17.17;8.93;;;;;;;;;;6270813;28;20481;-76
2022/06/06 04:32:09;;;;;;;13.52;9.07;;;;;;;;;;6258185;28;20029;-76
2022/06/06 04:35:09;;;;;;;14.80;8.60;;;;;;;;;;6271577;28;20020;-76
2022/06/06 04:38:45;;;;;;;12.10;7.87;;;;;;;;;;6256995;28;20017;-76
2022/06/06 04:41:51;;;;;;;12.32;7.25;;;;;;;;;;6222486;28;20135;-76
2022/06/06 04:44:59;;;;;;;12.80;7.85;;;;;;;;;;6267560;28;20013;-76
2022/06/06 04:48:01;;;;;;;10.98;6.25;;;;;;;;;;6269899;28;20021;-76
2022/06/06 04:51:02;;;;;;;8.73;6.70;;;;;;;;;;6273400;28;20013;-76
2022/06/06 04:54:03;;;;;;;10.20;6.50;;;;;;;;;;6273379;28;20384;-76
2022/06/06 04:57:03;;;;;;;11.67;7.43;;;;;;;;;;6272522;28;20049;-75
2022/06/06 05:00:05;;;;;;;11.43;8.00;;;;;;;;;;6274801;28;20021;-76
2022/06/06 05:03:05;;;;;;;13.55;8.20;;;;;;;;;;6268525;28;20480;-77
2022/06/06 05:06:18;;;;;;;13.67;7.13;;;;;;;;;;6261943;28;21508;-76
2022/06/06 05:09:33;;;;;;;10.10;6.47;;;;;;;;;;6266496;28;20606;-76
2022/06/06 05:12:52;;;;;;;10.73;7.32;;;;;;;;;;6264085;28;20020;-75
2022/06/06 05:15:55;;;;;;;9.77;6.80;;;;;;;;;;6259229;28;20432;-78
2022/06/06 05:18:58;;;;;;;13.13;7.03;;;;;;;;;;6270845;28;20017;-76
2022/06/06 05:21:59;;;;;;;11.93;6.90;;;;;;;;;;6258928;28;20021;-76
2022/06/06 05:25:08;;;;;;;10.40;7.07;;;;;;;;;;6267805;28;20030;-76
2022/06/06 05:28:08;;;;;;;10.93;6.55;;;;;;;;;;6271824;28;20389;-76
2022/06/06 05:31:21;;;;;;;11.17;7.43;;;;;;;;;;6269563;28;20086;-76
2022/06/06 05:34:43;;;;;;;11.80;7.35;;;;;;;;;;6282882;28;20082;-76
2022/06/06 05:37:43;;;;;;;;;;;;;;;;;;6267344;28;20021;-75
2022/06/06 05:40:43;;;;;;;11.20;7.13;;;;;;;;;;6270237;28;19986;-76
2022/06/06 05:43:49;;;;;;;10.20;7.40;;;;;;;;;;6261486;28;20554;-76
2022/06/06 05:47:00;;;;;;;12.20;7.00;;;;;;;;;;6266031;28;20017;-76
2022/06/06 05:50:05;;;;;;;10.52;6.97;;;;;;;;;;6270275;28;20021;-76
2022/06/06 05:53:21;;;;;;;8.30;6.55;;;;;;;;;;6271821;28;20020;-76
2022/06/06 05:56:40;;;;;;;8.23;6.15;;;;;;;;;;6265811;28;20021;-76
2022/06/06 05:59:59;;;;;;;9.23;6.57;;;;;;;;;;6262068;28;20018;-75
2022/06/06 06:03:05;;;;;;;12.40;7.32;;;;;;;;;;6271154;28;20641;-76
2022/06/06 06:06:22;;;;;;;10.57;6.63;;;;;;;;;;6264537;28;21546;-76
2022/06/06 06:09:37;;;;;;;11.90;6.85;;;;;;;;;;6259547;28;20013;-76
2022/06/06 06:12:54;;;;;;;8.85;6.68;;;;;;;;;;6252610;28;20551;-77
2022/06/06 06:15:56;;;;;;;9.25;5.88;;;;;;;;;;6255436;28;20028;-77
2022/06/06 06:19:11;;;;;;;8.60;5.85;;;;;;;;;;6265358;28;20032;-77
2022/06/06 06:22:12;;;;;;;8.82;5.80;;;;;;;;;;6271442;28;20032;-77
2022/06/06 06:25:14;;;;;;;10.00;6.43;;;;;;;;;;6269395;28;20040;-77
2022/06/06 06:28:14;;;;;;;6.60;5.13;;;;;;;;;;6269199;28;20021;-77
2022/06/06 06:31:35;;;;;;;9.18;6.10;;;;;;;;;;6271563;28;20013;-77
2022/06/06 06:34:54;;;;;;;8.60;5.05;;;;;;;;;;6239445;28;20025;-77
2022/06/06 06:37:54;;;;;;;9.27;5.35;;;;;;;;;;6259575;28;20024;-77
2022/06/06 06:41:13;;;;;;;7.07;5.07;;;;;;;;;;6267473;28;20075;-76
2022/06/06 06:44:17;;;;;;;5.38;4.13;;;;;;;;;;6267351;28;20025;-76
2022/06/06 06:47:19;;;;;;;5.90;4.95;;;;;;;;;;6264377;28;20013;-76
2022/06/06 06:50:26;;;;;;;7.70;5.10;;;;;;;;;;6271009;28;20041;-77
2022/06/06 06:53:29;;;;;;;6.25;4.75;;;;;;;;;;6266613;28;20045;-76
2022/06/06 06:56:48;;;;;;;7.93;5.10;;;;;;;;;;6264596;28;20021;-77
2022/06/06 06:59:48;;;;;;;5.50;4.65;;;;;;;;;;6260347;28;20595;-77
2022/06/06 07:09:48;;;;;;;8.00;5.13;;;;;;;;;;6263113;28;20033;-77
2022/06/06 07:13:07;;;;;;;7.83;5.27;;;;;;;;;;6272654;28;20028;-77
2022/06/06 07:16:15;;;;;;;6.50;4.63;;;;;;;;;;6273559;28;20495;-76
2022/06/06 07:19:20;;;;;;;5.95;4.70;;;;;;;;;;6270512;28;20049;-77
2022/06/06 07:22:21;;;;;;;6.47;4.70;;;;;;;;;;6269440;28;20504;-76
2022/06/06 07:25:21;;;;;;;9.30;6.50;;;;;;;;;;6268442;28;20021;-76
2022/06/06 07:28:23;;;;;;;9.60;5.28;;;;;;;;;;6267368;28;20013;-76
2022/06/06 07:31:23;;;;;;;5.95;4.60;;;;;;;;;;6263965;28;20017;-76
2022/06/06 07:34:31;;;;;;;7.43;5.17;;;;;;;;;;6258536;28;20488;-77
2022/06/06 07:37:31;;;;;;;5.28;4.30;;;;;;;;;;6262751;28;20979;-76
2022/06/06 07:40:31;;;;;;;6.53;4.50;;;;;;;;;;6269481;28;20016;-76
2022/06/06 07:43:50;;;;;;;7.03;5.50;;;;;;;;;;6271034;28;20017;-77
2022/06/06 07:46:59;;;;;;;7.70;4.45;;;;;;;;;;6262583;28;20052;-77
2022/06/06 07:49:59;;;;;;;7.38;4.75;;;;;;;;;;6260446;28;20047;-76
2022/06/06 07:53:05;;;;;;;6.33;5.03;;;;;;;;;;6257528;28;20067;-76
2022/06/06 07:56:18;;;;;;;8.77;5.05;;;;;;;;;;6251473;28;20271;-76
2022/06/06 07:59:25;;;;;;;9.45;5.22;;;;;;;;;;6271677;28;20115;-76
2022/06/06 08:02:28;;;;;;;8.35;6.90;;;;;;;;;;6268536;28;21906;-76
2022/06/06 08:05:43;;;;;;;6.72;5.07;;;;;;;;;;6274507;28;20021;-76
2022/06/06 08:08:52;;;;;;;6.95;6.05;;;;;;;;;;6267052;28;20023;-76
2022/06/06 08:11:56;;;;;;;6.70;5.57;;;;;;;;;;6273409;28;20477;-76
2022/06/06 08:15:14;;;;;;;7.30;5.53;;;;;;;;;;6269669;28;20362;-76
2022/06/06 08:18:33;;;;;;;9.10;6.00;;;;;;;;;;6263870;28;20037;-77
2022/06/06 08:21:49;;;;;;;7.53;5.47;;;;;;;;;;6269610;28;20148;-77
2022/06/06 08:24:52;;;;;;;9.18;6.40;;;;;;;;;;6273319;28;20461;-77
2022/06/06 08:27:52;;;;;;;7.85;5.72;;;;;;;;;;6266270;28;20013;-77
2022/06/06 08:30:53;;;;;;;8.07;6.20;;;;;;;;;;6266335;28;20033;-77
2022/06/06 08:33:53;;;;;;;8.23;5.40;;;;;;;;;;6264790;28;20067;-77
2022/06/06 08:37:04;;;;;;;7.57;5.37;;;;;;;;;;6263703;28;20131;-77
2022/06/06 08:40:22;;;;;;;7.43;6.07;;;;;;;;;;6256564;28;20016;-77
2022/06/06 08:43:29;;;;;;;6.00;5.40;;;;;;;;;;6267062;28;20013;-76
2022/06/06 08:46:32;;;;;;;7.50;5.22;;;;;;;;;;6270080;28;20021;-76
2022/06/06 08:53:00;;;;;;;6.28;5.47;;;;;;;;;;6257050;28;20033;-76
2022/06/06 08:56:20;;;;;;;6.68;5.28;;;;;;;;;;6275827;28;20165;-76
2022/06/06 08:59:39;;;;;;;10.65;5.82;;;;;;;;;;6260639;28;20397;-76
2022/06/06 09:02:58;;;;;;;9.32;5.68;;;;;;;;;;6264901;28;20024;-77
2022/06/06 09:06:11;;;;;;;9.75;5.97;;;;;;;;;;6272998;28;20020;-76
2022/06/06 09:09:30;;;;;;;9.85;5.93;;;;;;;;;;6269220;28;20035;-76
2022/06/06 09:12:30;;;;;;;10.30;5.95;;;;;;;;;;6262027;28;20377;-76
2022/06/06 09:15:39;;;;;;;7.90;5.93;;;;;;;;;;6259828;28;20021;-76
2022/06/06 09:18:48;;;;;;;9.15;6.57;;;;;;;;;;6260797;28;20110;-77
2022/06/06 09:22:04;;;;;;;9.80;5.88;;;;;;;;;;6257761;28;20508;-76
2022/06/06 09:25:19;;;;;;;11.43;5.60;;;;;;;;;;6262749;28;20025;-76
2022/06/06 09:28:38;;;;;;;7.50;6.25;;;;;;;;;;6263258;28;20365;-77
2022/06/06 09:31:44;;;;;;;9.38;5.85;;;;;;;;;;6268199;28;20081;-76
2022/06/06 09:34:44;;;;;;;8.70;5.90;;;;;;;;;;6265849;28;20028;-76
2022/06/06 09:38:03;;;;;;;7.37;5.13;;;;;;;;;;6260131;28;20397;-76
2022/06/06 09:41:13;;;;;;;8.10;6.05;;;;;;;;;;6265427;28;20015;-77
2022/06/06 09:44:22;;;;;;;7.03;5.82;;;;;;;;;;6267280;28;20017;-77
2022/06/06 09:47:34;;;;;;;8.73;6.32;;;;;;;;;;6269028;28;20028;-77
2022/06/06 09:50:43;;;;;;;8.32;6.10;;;;;;;;;;6263751;28;20028;-77
2022/06/06 10:00:58;;;;;;;8.57;6.25;;;;;;;;;;6267549;28;20448;-77
2022/06/06 10:04:17;;;;;;;7.05;5.78;;;;;;;;;;6267480;28;20021;-77
2022/06/06 10:07:26;;;;;;;7.47;6.25;;;;;;;;;;6262150;28;20036;-77
2022/06/06 10:10:36;;;;;;;12.65;6.25;;;;;;;;;;6266499;28;20401;-77
2022/06/06 10:13:55;;;;;;;8.45;6.15;;;;;;;;;;6258771;28;20017;-77
2022/06/06 10:17:14;;;;;;;9.52;6.38;;;;;;;;;;6267891;28;20029;-77
2022/06/06 10:20:23;;;;;;;7.57;5.35;;;;;;;;;;6268001;28;20060;-77
2022/06/06 10:23:32;;;;;;;7.20;5.68;;;;;;;;;;6267843;28;20039;-77
2022/06/06 10:26:38;;;;;;;8.25;5.60;;;;;;;;;;6264597;28;20440;-77
2022/06/06 10:33:10;;;;;;;7.60;5.78;;;;;;;;;;6268016;28;20048;-77
2022/06/06 10:36:20;;;;;;;11.30;6.60;;;;;;;;;;6266566;28;20028;-77
2022/06/06 10:39:32;;;;;;;9.52;5.93;;;;;;;;;;6273924;28;20028;-77
2022/06/06 10:42:44;;;;;;;8.57;6.20;;;;;;;;;;6271259;28;20675;-77
2022/06/06 10:45:52;;;;;;;7.65;5.30;;;;;;;;;;6274183;28;20048;-77
2022/06/06 10:49:06;;;;;;;8.98;6.13;;;;;;;;;;6266244;28;20036;-76
2022/06/06 10:52:11;;;;;;;8.57;5.93;;;;;;;;;;6267752;28;20518;-77
2022/06/06 10:55:29;;;;;;;5.90;5.30;;;;;;;;;;6261654;28;20410;-77
2022/06/06 10:58:48;;;;;;;7.32;5.72;;;;;;;;;;6268588;28;20029;-78
2022/06/06 11:01:56;;;;;;;9.32;6.85;;;;;;;;;;6275462;28;20021;-77
2022/06/06 11:05:22;;;;;;;7.10;5.43;;;;;;;;;;6272721;28;20025;-77
2022/06/06 11:08:51;;;;;;;8.63;5.95;;;;;;;;;;6269826;28;20036;-77
2022/06/06 11:12:09;;;;;;;6.38;5.70;;;;;;;;;;6271240;28;20083;-77
2022/06/06 11:15:10;;;;;;;6.30;5.63;;;;;;;;;;6273885;28;20021;-77
2022/06/06 11:18:27;;;;;;;6.67;5.50;;;;;;;;;;6265923;28;20103;-76
2022/06/06 11:21:39;;;;;;;10.07;7.03;;;;;;;;;;6275045;28;20053;-77
2022/06/06 11:24:43;;;;;;;9.27;5.32;;;;;;;;;;6276423;28;20021;-77
2022/06/06 11:27:55;;;;;;;7.28;5.45;;;;;;;;;;6273524;28;20437;-77
2022/06/06 11:31:36;;;;;;;8.10;5.90;;;;;;;;;;6275117;28;20068;-77
2022/06/06 11:34:37;;;;;;;12.70;6.07;;;;;;;;;;6173087;28;20108;-77
2022/06/06 11:37:48;;;;;;;10.88;6.50;;;;;;;;;;6197880;28;20394;-77
2022/06/06 11:41:00;;;;;;;9.98;6.68;;;;;;;;;;6266883;28;20021;-77
2022/06/06 11:44:12;;;;;;;9.77;5.95;;;;;;;;;;6272134;28;20017;-77
2022/06/06 11:47:16;;;;;;;9.68;5.82;;;;;;;;;;6274130;28;20017;-77
2022/06/06 11:50:22;;;;;;;8.38;5.72;;;;;;;;;;6266103;28;20401;-77
2022/06/06 11:53:41;;;;;;;9.77;5.47;;;;;;;;;;6268486;28;20055;-76
2022/06/06 11:57:04;;;;;;;10.48;5.97;;;;;;;;;;6268059;28;20055;-77
2022/06/06 12:00:13;;;;;;;6.40;5.63;;;;;;;;;;6264016;28;20477;-77
2022/06/06 12:03:13;;;;;;;8.50;5.28;;;;;;;;;;6259108;28;20017;-77
2022/06/06 12:06:22;;;;;;;8.00;6.03;;;;;;;;;;6259326;28;20055;-77
2022/06/06 12:09:25;;;;;;;8.50;5.35;;;;;;;;;;6254562;28;20033;-77
2022/06/06 12:12:34;;;;;;;8.77;5.80;;;;;;;;;;6251544;28;20436;-77
2022/06/06 12:15:52;;;;;;;8.05;5.80;;;;;;;;;;6254407;28;20415;-77
2022/06/06 12:19:01;;;;;;;9.20;5.60;;;;;;;;;;6263359;28;20108;-76
2022/06/06 12:22:20;;;;;;;7.57;5.65;;;;;;;;;;6267664;28;20039;-77
2022/06/06 12:25:36;;;;;;;8.15;5.95;;;;;;;;;;6270588;28;20009;-77
2022/06/06 12:28:54;;;;;;;14.50;5.65;;;;;;;;;;6272980;28;20396;-77
2022/06/06 12:32:02;;;;;;;8.35;5.72;;;;;;;;;;6267265;28;20028;-77
2022/06/06 12:35:16;;;;;;;7.40;5.75;;;;;;;;;;6266029;28;20017;-77
2022/06/06 12:38:39;;;;;;;8.13;5.32;;;;;;;;;;6267863;28;20503;-77
2022/06/06 12:41:43;;;;;;;8.48;5.97;;;;;;;;;;6282334;28;20017;-77
2022/06/06 12:44:43;;;;;;;6.95;5.65;;;;;;;;;;6264913;28;20045;-78
2022/06/06 12:48:13;;;;;;;7.40;5.97;;;;;;;;;;6266465;28;20012;-77
2022/06/06 12:51:13;;;;;;;7.80;5.93;;;;;;;;;;6265301;28;20029;-76
2022/06/06 12:54:13;;;;;;;;;;;;;;;;;;6269707;28;20013;-77
2022/06/06 12:57:14;;;;;;;5.95;5.13;;;;;;;;;;6260320;28;19971;-76
2022/06/06 13:00:15;;;;;;;7.03;5.30;;;;;;;;;;6271827;28;20449;-77
2022/06/06 13:03:25;;;;;;;7.78;5.97;;;;;;;;;;6259861;28;20116;-76
2022/06/06 13:06:36;;;;;;;8.10;5.50;;;;;;;;;;6268797;28;20093;-76
2022/06/06 13:09:46;;;;;;;7.43;5.47;;;;;;;;;;6294257;28;20025;-77
2022/06/06 13:12:58;;;;;;;7.65;5.68;;;;;;;;;;6273281;28;20076;-77
2022/06/06 13:16:13;;;;;;;9.82;6.30;;;;;;;;;;6268783;28;20013;-76
2022/06/06 13:19:29;;;;;;;8.63;6.25;;;;;;;;;;6275508;28;20068;-78
2022/06/06 13:22:36;;;;;;;8.43;5.88;;;;;;;;;;6287925;28;20082;-77
2022/06/06 13:25:43;;;;;;;13.15;6.20;;;;;;;;;;6273109;28;20060;-75
2022/06/06 13:28:46;;;;;;;11.20;6.35;;;;;;;;;;6269466;28;20070;-76
2022/06/06 13:32:07;;;;;;;8.23;6.32;;;;;;;;;;6260995;28;20492;-76
2022/06/06 13:35:17;;;;;;;11.43;7.20;;;;;;;;;;6266335;28;20029;-75
2022/06/06 13:38:23;;;;;;;11.10;6.25;;;;;;;;;;6264662;28;20294;-75
2022/06/06 13:41:31;;;;;;;9.95;6.28;;;;;;;;;;6270725;28;20017;-76
2022/06/06 13:44:43;;;;;;;9.00;6.95;;;;;;;;;;6268949;28;20010;-76
2022/06/06 13:47:50;;;;;;;9.93;6.97;;;;;;;;;;6253909;28;20021;-76
2022/06/06 13:50:53;;;;;;;10.18;7.10;;;;;;;;;;6263474;28;20554;-76
2022/06/06 13:54:01;;;;;;;13.90;9.13;;;;;;;;;;6259267;28;20021;-76
2022/06/06 13:57:14;;;;;;;12.38;7.65;;;;;;;;;;6271833;28;20099;-77
2022/06/06 14:00:17;;;;;;;12.98;7.75;;;;;;;;;;6267074;28;20025;-76
2022/06/06 14:03:17;;;;;;;10.48;6.60;;;;;;;;;;6258213;28;20044;-76
2022/06/06 14:06:17;;;;;;;9.03;6.50;;;;;;;;;;6258469;28;20048;-76
2022/06/06 14:09:33;;;;;;;8.43;6.50;;;;;;;;;;6256313;28;20016;-76
2022/06/06 14:12:41;;;;;;;10.43;6.13;;;;;;;;;;6263853;28;20017;-76
2022/06/06 14:15:43;;;;;;;7.30;5.53;;;;;;;;;;6255014;28;20025;-76
2022/06/06 14:18:43;;;;;;;9.23;6.60;;;;;;;;;;6257927;28;20049;-76
2022/06/06 14:22:04;;;;;;;7.47;6.10;;;;;;;;;;6257215;28;20082;-76
2022/06/06 14:25:06;;;;;;;7.60;5.53;;;;;;;;;;6266016;28;20014;-76
2022/06/06 14:28:06;;;;;;;;;;;;;;;;;;6260480;28;20134;-76
2022/06/06 14:31:32;;;;;;;9.68;5.72;;;;;;;;;;6255797;28;19913;-77
2022/06/06 14:34:40;;;;;;;7.35;5.47;;;;;;;;;;6258117;28;20115;-76
2022/06/06 14:37:41;;;;;;;9.93;5.05;;;;;;;;;;6264364;28;20021;-76
2022/06/06 14:40:53;;;;;;;12.50;4.70;;;;;;;;;;6260710;28;20729;-77
2022/06/06 14:43:59;;;;;;;11.77;5.68;;;;;;;;;;6265552;28;20005;-76
2022/06/06 14:47:08;;;;;;;4.53;3.28;;;;;;;;;;6257810;28;20010;-75
2022/06/06 14:53:35;;;;;;;4.55;3.10;;;;;;;;;;6257560;28;20041;-75
2022/06/06 14:56:37;;;;;;;4.10;2.80;;;;;;;;;;6261007;28;20033;-75
2022/06/06 14:59:41;;;;;;;4.70;3.05;;;;;;;;;;6256607;28;20048;-76
2022/06/06 15:02:58;;;;;;;6.47;3.30;;;;;;;;;;6264107;28;20024;-75
2022/06/06 15:06:08;;;;;;;9.13;3.75;;;;;;;;;;6263100;28;20549;-75
2022/06/06 15:09:12;;;;;;;5.65;3.03;;;;;;;;;;6252987;28;20021;-76
2022/06/06 15:12:23;;;;;;;6.70;2.92;;;;;;;;;;6268489;28;20052;-75
2022/06/06 15:15:28;;;;;;;7.25;4.10;;;;;;;;;;6258174;28;20029;-75
2022/06/06 15:18:36;;;;;;;5.60;2.60;;;;;;;;;;6266489;28;20025;-76
2022/06/06 15:21:39;;;;;;;7.45;3.10;;;;;;;;;;6265139;28;20528;-76
2022/06/06 15:24:43;;;;;;;5.88;2.72;;;;;;;;;;6276831;28;20048;-76
2022/06/06 15:27:46;;;;;;;5.05;3.53;;;;;;;;;;6286513;28;20029;-76
2022/06/06 15:30:49;;;;;;;4.90;2.97;;;;;;;;;;6276145;28;20025;-76
2022/06/06 15:33:50;;;;;;;7.28;3.25;;;;;;;;;;6274588;28;20029;-76
2022/06/06 15:37:10;;;;;;;5.07;2.72;;;;;;;;;;6268896;28;20388;-76
2022/06/06 15:40:10;;;;;;;7.22;4.07;;;;;;;;;;6255243;28;20064;-76
2022/06/06 15:43:45;;;;;;;6.57;4.13;;;;;;;;;;6258109;28;20017;-77
2022/06/06 15:46:49;;;;;;;5.30;3.38;;;;;;;;;;6210260;28;20112;-76
2022/06/06 15:50:13;;;;;;;4.75;2.72;;;;;;;;;;6254622;28;20016;-76
2022/06/06 15:53:32;;;;;;;5.53;3.10;;;;;;;;;;6282727;28;20020;-76
2022/06/06 15:56:33;;;;;;;5.97;3.20;;;;;;;;;;6275170;28;20534;-76
2022/06/06 15:59:41;;;;;;;4.43;2.67;;;;;;;;;;6262068;28;20060;-76
2022/06/06 16:02:43;;;;;;;4.53;2.70;;;;;;;;;;6274176;28;20014;-76
2022/06/06 16:05:46;;;;;;;5.28;2.47;;;;;;;;;;6271522;28;20025;-76
2022/06/06 16:09:05;;;;;;;5.60;2.22;;;;;;;;;;6272815;28;20421;-76
2022/06/06 16:12:24;;;;;;;7.05;2.17;;;;;;;;;;6264551;28;20052;-77
2022/06/06 16:15:43;;;;;;;5.03;2.90;;;;;;;;;;6261813;28;20031;-76
2022/06/06 16:18:46;;;;;;;3.70;2.30;;;;;;;;;;6259125;28;20036;-76
2022/06/06 16:21:51;;;;;;;9.10;3.03;;;;;;;;;;6265038;28;20049;-76
2022/06/06 16:24:57;;;;;;;3.63;2.25;;;;;;;;;;6257690;28;20021;-76
2022/06/06 16:28:27;;;;;;;4.13;1.90;;;;;;;;;;6262022;28;20021;-75
2022/06/06 16:31:35;;;;;;;2.80;2.00;;;;;;;;;;6254960;28;20386;-76
2022/06/06 16:34:36;;;;;;;5.50;2.22;;;;;;;;;;6266523;28;20560;-76
2022/06/06 16:37:56;;;;;;;3.50;2.05;;;;;;;;;;6261429;28;20074;-76
2022/06/06 16:47:54;;;;;;;2.90;2.17;;;;;;;;;;6269439;28;20021;-76
2022/06/06 16:48:17;;;;;;;4.68;1.98;;;;;;;;;;6258584;28;20026;-76
2022/06/06 16:51:36;;;;;;;4.25;2.33;;;;;;;;;;6265564;28;20086;-76
2022/06/06 16:54:41;;;;;;;6.28;1.95;;;;;;;;;;6263383;28;20503;-76
2022/06/06 16:57:50;;;;;;;3.88;2.13;;;;;;;;;;6269537;28;20025;-76
2022/06/06 17:00:55;;;;;;;5.20;2.50;;;;;;;;;;6267563;28;20044;-76
2022/06/06 17:04:07;;;;;;;3.38;2.22;;;;;;;;;;6266695;28;20074;-77
2022/06/06 17:10:48;;;;;;;3.13;2.15;;;;;;;;;;6260318;28;20139;-76
2022/06/06 17:13:54;;;;;;;1.83;1.70;;;;;;;;;;6257095;28;20032;-77
2022/06/06 17:16:57;;;;;;;4.25;2.33;;;;;;;;;;6263928;28;20048;-76
2022/06/06 17:20:16;;;;;;;3.63;1.83;;;;;;;;;;6261238;28;20401;-77
2022/06/06 17:23:27;;;;;;;6.30;2.33;;;;;;;;;;6263338;28;20028;-76
2022/06/06 17:26:30;;;;;;;8.93;3.13;;;;;;;;;;6268683;28;20024;-76
2022/06/06 17:29:49;;;;;;;4.45;2.13;;;;;;;;;;6270314;28;20702;-76
2022/06/06 17:32:54;;;;;;;3.08;2.08;;;;;;;;;;6269977;28;20036;-76
2022/06/06 17:36:10;;;;;;;4.97;2.45;;;;;;;;;;6271736;28;20047;-77
2022/06/06 17:39:21;;;;;;;4.40;2.05;;;;;;;;;;6264501;28;20417;-76
2022/06/06 17:42:33;;;;;;;4.97;2.10;;;;;;;;;;6265083;28;20024;-76
2022/06/06 17:45:37;;;;;;;4.88;2.33;;;;;;;;;;6262544;28;20074;-77
2022/06/06 17:48:46;;;;;;;6.55;2.80;;;;;;;;;;6258865;28;20035;-77
2022/06/06 17:51:57;;;;;;;2.55;1.60;;;;;;;;;;6257044;28;20025;-77
2022/06/06 17:54:57;;;;;;;10.40;4.65;;;;;;;;;;6262224;28;20044;-77
2022/06/06 17:58:12;;;;;;;6.43;3.00;;;;;;;;;;6269393;28;20055;-77
2022/06/06 18:01:22;;;;;;;6.82;3.13;;;;;;;;;;6264110;28;20461;-77
2022/06/06 18:04:42;;;;;;;12.50;6.05;;;;;;;;;;6269729;28;20016;-77
2022/06/06 18:07:56;;;;;;;7.07;3.25;;;;;;;;;;6253195;28;20044;-77
2022/06/06 18:11:03;;;;;;;12.43;5.68;;;;;;;;;;6258131;28;20048;-77
2022/06/06 18:14:27;;;;;;;15.38;7.60;;;;;;;;;;6267143;28;20108;-77
2022/06/06 18:17:42;;;;;;;14.90;7.45;;;;;;;;;;6278091;28;20472;-77
2022/06/06 18:20:46;;;;;;;14.63;6.95;;;;;;;;;;6277477;28;20056;-77
2022/06/06 18:23:55;;;;;;;15.25;7.38;;;;;;;;;;6268228;28;20021;-77
2022/06/06 18:26:58;;;;;;;9.48;5.35;;;;;;;;;;6268250;28;20021;-77
2022/06/06 18:30:06;;;;;;;14.50;6.40;;;;;;;;;;6267117;28;20455;-77
2022/06/06 18:33:13;;;;;;;13.38;6.78;;;;;;;;;;6258829;28;20093;-77
2022/06/06 18:36:15;;;;;;;16.60;8.02;;;;;;;;;;6270082;28;20021;-77
2022/06/06 18:39:15;;;;;;;;;;;;;;;;;;6253501;28;20280;-77
2022/06/06 18:42:35;;;;;;;16.02;9.32;;;;;;;;;;6265835;28;20006;-77
2022/06/06 18:45:35;;;;;;;16.75;10.38;;;;;;;;;;6261517;28;20072;-77
2022/06/06 18:48:36;;;;;;;13.20;8.33;;;;;;;;;;6263160;28;20032;-77
2022/06/06 18:51:41;;;;;;;16.00;9.17;;;;;;;;;;6268264;28;20397;-77
2022/06/06 18:54:44;;;;;;;14.30;8.07;;;;;;;;;;6269484;28;20059;-76
2022/06/06 18:57:58;;;;;;;17.15;7.30;;;;;;;;;;6272325;28;20519;-76
2022/06/06 19:01:13;;;;;;;14.35;7.45;;;;;;;;;;6273282;28;20024;-76
2022/06/06 19:04:22;;;;;;;13.90;7.78;;;;;;;;;;6267191;28;20070;-77
2022/06/06 19:07:35;;;;;;;15.38;8.65;;;;;;;;;;6261306;28;20055;-77
2022/06/06 19:10:37;;;;;;;14.68;6.95;;;;;;;;;;6261618;28;20033;-77
2022/06/06 19:13:37;;;;;;;13.95;7.30;;;;;;;;;;6272026;28;20036;-77
2022/06/06 19:16:40;;;;;;;16.53;7.17;;;;;;;;;;6265161;28;20017;-77
2022/06/06 19:19:40;;;;;;;11.80;5.68;;;;;;;;;;6267649;28;20017;-77
2022/06/06 19:22:45;;;;;;;13.07;6.17;;;;;;;;;;6273243;28;20028;-76